sensor_id;sensor_type;location;lat;lon;timestamp;pressure;altitude;pressure_sealevel;temperature
69785;BMP280;14177;51.520;6.764;2022-08-21T00:00:27;101450.13;;;19.40
69785;BMP280;14177;51.520;6.764;2022-08-21T00:03:15;101449.34;;;19.38
69785;BMP280;14177;51.520;6.764;2022-08-21T00:05:48;101456.56;;;19.35
69785;BMP280;14177;51.520;6.764;2022-08-21T00:08:20;101446.47;;;19.27
69785;BMP280;14177;51.520;6.764;2022-08-21T00:10:48;101452.00;;;19.23
69785;BMP280;14177;51.520;6.764;2022-08-21T00:13:17;101444.28;;;19.20
69785;BMP280;14177;51.520;6.764;2022-08-21T00:15:48;101445.28;;;19.17
69785;BMP280;14177;51.520;6.764;2022-08-21T00:18:17;101443.88;;;19.10
69785;BMP280;14177;51.520;6.764;2022-08-21T00:20:46;101445.75;;;19.08
69785;BMP280;14177;51.520;6.764;2022-08-21T00:23:13;101432.91;;;19.02
69785;BMP280;14177;51.520;6.764;2022-08-21T00:25:42;101438.34;;;18.99
69785;BMP280;14177;51.520;6.764;2022-08-21T00:28:11;101428.09;;;18.95
69785;BMP280;14177;51.520;6.764;2022-08-21T00:30:39;101421.22;;;18.92
69785;BMP280;14177;51.520;6.764;2022-08-21T00:33:10;101426.66;;;18.89
69785;BMP280;14177;51.520;6.764;2022-08-21T00:35:41;101424.44;;;18.82
69785;BMP280;14177;51.520;6.764;2022-08-21T00:38:10;101424.09;;;18.72
69785;BMP280;14177;51.520;6.764;2022-08-21T00:40:49;101426.28;;;18.64
69785;BMP280;14177;51.520;6.764;2022-08-21T00:43:22;101433.56;;;18.59
69785;BMP280;14177;51.520;6.764;2022-08-21T00:45:50;101430.34;;;18.54
69785;BMP280;14177;51.520;6.764;2022-08-21T00:48:17;101428.81;;;18.50
69785;BMP280;14177;51.520;6.764;2022-08-21T00:50:50;101434.31;;;18.46
69785;BMP280;14177;51.520;6.764;2022-08-21T00:53:19;101430.06;;;18.43
69785;BMP280;14177;51.520;6.764;2022-08-21T00:55:46;101427.41;;;18.43
69785;BMP280;14177;51.520;6.764;2022-08-21T00:58:18;101419.69;;;18.40
69785;BMP280;14177;51.520;6.764;2022-08-21T01:00:48;101417.22;;;18.37
69785;BMP280;14177;51.520;6.764;2022-08-21T01:03:21;101415.53;;;18.36
69785;BMP280;14177;51.520;6.764;2022-08-21T01:05:51;101419.09;;;18.35
69785;BMP280;14177;51.520;6.764;2022-08-21T01:08:19;101414.91;;;18.32
69785;BMP280;14177;51.520;6.764;2022-08-21T01:10:48;101422.13;;;18.28
69785;BMP280;14177;51.520;6.764;2022-08-21T01:13:26;101417.06;;;18.24
69785;BMP280;14177;51.520;6.764;2022-08-21T01:15:56;101425.13;;;18.21
69785;BMP280;14177;51.520;6.764;2022-08-21T01:18:27;101429.78;;;18.16
69785;BMP280;14177;51.520;6.764;2022-08-21T01:24:04;101433.19;;;18.01
69785;BMP280;14177;51.520;6.764;2022-08-21T01:26:36;101443.16;;;17.94
69785;BMP280;14177;51.520;6.764;2022-08-21T01:29:09;101437.53;;;17.85
69785;BMP280;14177;51.520;6.764;2022-08-21T01:31:38;101427.31;;;17.79
69785;BMP280;14177;51.520;6.764;2022-08-21T01:34:06;101433.75;;;17.73
69785;BMP280;14177;51.520;6.764;2022-08-21T01:36:37;101434.88;;;17.68
69785;BMP280;14177;51.520;6.764;2022-08-21T01:39:08;101435.03;;;17.65
69785;BMP280;14177;51.520;6.764;2022-08-21T01:41:35;101438.75;;;17.61
69785;BMP280;14177;51.520;6.764;2022-08-21T01:44:03;101444.09;;;17.59
69785;BMP280;14177;51.520;6.764;2022-08-21T01:46:31;101429.53;;;17.52
69785;BMP280;14177;51.520;6.764;2022-08-21T01:48:58;101436.72;;;17.49
69785;BMP280;14177;51.520;6.764;2022-08-21T01:51:25;101430.72;;;17.47
69785;BMP280;14177;51.520;6.764;2022-08-21T01:53:52;101431.69;;;17.44
69785;BMP280;14177;51.520;6.764;2022-08-21T01:56:19;101428.28;;;17.42
69785;BMP280;14177;51.520;6.764;2022-08-21T01:58:47;101426.59;;;17.41
69785;BMP280;14177;51.520;6.764;2022-08-21T02:01:14;101428.38;;;17.41
69785;BMP280;14177;51.520;6.764;2022-08-21T02:03:42;101425.81;;;17.39
69785;BMP280;14177;51.520;6.764;2022-08-21T02:06:15;101421.63;;;17.35
69785;BMP280;14177;51.520;6.764;2022-08-21T02:08:45;101432.28;;;17.32
69785;BMP280;14177;51.520;6.764;2022-08-21T02:11:12;101425.31;;;17.31
69785;BMP280;14177;51.520;6.764;2022-08-21T02:13:39;101423.59;;;17.30
69785;BMP280;14177;51.520;6.764;2022-08-21T02:16:06;101425.38;;;17.30
69785;BMP280;14177;51.520;6.764;2022-08-21T02:18:34;101425.53;;;17.27
69785;BMP280;14177;51.520;6.764;2022-08-21T02:21:04;101422.03;;;17.26
69785;BMP280;14177;51.520;6.764;2022-08-21T02:23:32;101416.72;;;17.28
69785;BMP280;14177;51.520;6.764;2022-08-21T02:26:02;101420.19;;;17.28
69785;BMP280;14177;51.520;6.764;2022-08-21T02:28:34;101419.34;;;17.28
69785;BMP280;14177;51.520;6.764;2022-08-21T02:31:01;101415.97;;;17.26
69785;BMP280;14177;51.520;6.764;2022-08-21T02:33:29;101416.00;;;17.24
69785;BMP280;14177;51.520;6.764;2022-08-21T02:35:56;101417.94;;;17.21
69785;BMP280;14177;51.520;6.764;2022-08-21T02:38:27;101414.47;;;17.20
69785;BMP280;14177;51.520;6.764;2022-08-21T02:40:57;101418.09;;;17.18
69785;BMP280;14177;51.520;6.764;2022-08-21T02:43:26;101413.81;;;17.15
69785;BMP280;14177;51.520;6.764;2022-08-21T02:45:56;101416.53;;;17.14
69785;BMP280;14177;51.520;6.764;2022-08-21T02:48:33;101414.94;;;17.11
69785;BMP280;14177;51.520;6.764;2022-08-21T02:51:06;101419.31;;;17.11
69785;BMP280;14177;51.520;6.764;2022-08-21T02:53:34;101411.53;;;17.09
69785;BMP280;14177;51.520;6.764;2022-08-21T02:56:06;101420.22;;;17.10
69785;BMP280;14177;51.520;6.764;2022-08-21T02:58:53;101410.66;;;17.09
69785;BMP280;14177;51.520;6.764;2022-08-21T03:01:21;101410.88;;;17.05
69785;BMP280;14177;51.520;6.764;2022-08-21T03:03:48;101413.66;;;17.02
69785;BMP280;14177;51.520;6.764;2022-08-21T03:06:21;101415.41;;;17.01
69785;BMP280;14177;51.520;6.764;2022-08-21T03:08:48;101410.31;;;16.98
69785;BMP280;14177;51.520;6.764;2022-08-21T03:11:17;101404.38;;;16.95
69785;BMP280;14177;51.520;6.764;2022-08-21T03:13:47;101402.72;;;16.92
69785;BMP280;14177;51.520;6.764;2022-08-21T03:16:29;101401.16;;;16.88
69785;BMP280;14177;51.520;6.764;2022-08-21T03:19:02;101406.50;;;16.87
69785;BMP280;14177;51.520;6.764;2022-08-21T03:21:29;101410.97;;;16.85
69785;BMP280;14177;51.520;6.764;2022-08-21T03:23:57;101408.41;;;16.83
69785;BMP280;14177;51.520;6.764;2022-08-21T03:26:24;101407.63;;;16.81
69785;BMP280;14177;51.520;6.764;2022-08-21T03:28:54;101411.16;;;16.80
69785;BMP280;14177;51.520;6.764;2022-08-21T03:31:21;101406.94;;;16.78
69785;BMP280;14177;51.520;6.764;2022-08-21T03:33:48;101410.56;;;16.75
69785;BMP280;14177;51.520;6.764;2022-08-21T03:36:15;101405.31;;;16.75
69785;BMP280;14177;51.520;6.764;2022-08-21T03:38:42;101407.06;;;16.75
69785;BMP280;14177;51.520;6.764;2022-08-21T03:41:09;101410.56;;;16.75
69785;BMP280;14177;51.520;6.764;2022-08-21T03:43:36;101416.72;;;16.74
69785;BMP280;14177;51.520;6.764;2022-08-21T03:46:06;101407.19;;;16.72
69785;BMP280;14177;51.520;6.764;2022-08-21T03:48:36;101407.28;;;16.70
69785;BMP280;14177;51.520;6.764;2022-08-21T03:51:05;101412.53;;;16.70
69785;BMP280;14177;51.520;6.764;2022-08-21T03:53:33;101411.03;;;16.65
69785;BMP280;14177;51.520;6.764;2022-08-21T03:56:00;101413.00;;;16.60
69785;BMP280;14177;51.520;6.764;2022-08-21T03:58:28;101402.75;;;16.55
69785;BMP280;14177;51.520;6.764;2022-08-21T04:00:59;101411.59;;;16.53
69785;BMP280;14177;51.520;6.764;2022-08-21T04:03:28;101417.69;;;16.53
69785;BMP280;14177;51.520;6.764;2022-08-21T04:05:55;101420.31;;;16.53
69785;BMP280;14177;51.520;6.764;2022-08-21T04:08:23;101427.31;;;16.53
69785;BMP280;14177;51.520;6.764;2022-08-21T04:10:54;101427.41;;;16.51
69785;BMP280;14177;51.520;6.764;2022-08-21T04:13:22;101431.00;;;16.49
69785;BMP280;14177;51.520;6.764;2022-08-21T04:15:50;101429.28;;;16.48
69785;BMP280;14177;51.520;6.764;2022-08-21T04:18:17;101433.75;;;16.46
69785;BMP280;14177;51.520;6.764;2022-08-21T04:20:47;101442.63;;;16.43
69785;BMP280;14177;51.520;6.764;2022-08-21T04:23:18;101447.88;;;16.43
69785;BMP280;14177;51.520;6.764;2022-08-21T04:25:55;101444.47;;;16.41
69785;BMP280;14177;51.520;6.764;2022-08-21T04:28:24;101440.13;;;16.40
69785;BMP280;14177;51.520;6.764;2022-08-21T04:30:56;101435.69;;;16.42
69785;BMP280;14177;51.520;6.764;2022-08-21T04:33:23;101432.13;;;16.43
69785;BMP280;14177;51.520;6.764;2022-08-21T04:35:51;101439.09;;;16.44
69785;BMP280;14177;51.520;6.764;2022-08-21T04:38:21;101431.22;;;16.44
69785;BMP280;14177;51.520;6.764;2022-08-21T04:40:49;101431.28;;;16.43
69785;BMP280;14177;51.520;6.764;2022-08-21T04:43:17;101435.69;;;16.42
69785;BMP280;14177;51.520;6.764;2022-08-21T04:45:47;101432.28;;;16.40
69785;BMP280;14177;51.520;6.764;2022-08-21T04:48:18;101432.28;;;16.40
69785;BMP280;14177;51.520;6.764;2022-08-21T04:51:13;101443.59;;;16.41
69785;BMP280;14177;51.520;6.764;2022-08-21T04:53:54;101434.03;;;16.40
69785;BMP280;14177;51.520;6.764;2022-08-21T04:56:28;101436.66;;;16.40
69785;BMP280;14177;51.520;6.764;2022-08-21T04:59:00;101440.97;;;16.41
69785;BMP280;14177;51.520;6.764;2022-08-21T05:01:32;101426.94;;;16.42
69785;BMP280;14177;51.520;6.764;2022-08-21T05:04:03;101438.31;;;16.42
69785;BMP280;14177;51.520;6.764;2022-08-21T05:06:36;101435.69;;;16.42
69785;BMP280;14177;51.520;6.764;2022-08-21T05:09:04;101440.94;;;16.42
69785;BMP280;14177;51.520;6.764;2022-08-21T05:11:32;101431.22;;;16.44
69785;BMP280;14177;51.520;6.764;2022-08-21T05:13:59;101430.16;;;16.48
69785;BMP280;14177;51.520;6.764;2022-08-21T05:16:26;101439.59;;;16.52
69785;BMP280;14177;51.520;6.764;2022-08-21T05:19:05;101434.13;;;16.57
69785;BMP280;14177;51.520;6.764;2022-08-21T05:21:34;101434.88;;;16.60
69785;BMP280;14177;51.520;6.764;2022-08-21T05:24:02;101439.09;;;16.63
69785;BMP280;14177;51.520;6.764;2022-08-21T05:26:30;101442.50;;;16.65
69785;BMP280;14177;51.520;6.764;2022-08-21T05:29:11;101444.06;;;16.69
69785;BMP280;14177;51.520;6.764;2022-08-21T05:31:39;101443.00;;;16.73
69785;BMP280;14177;51.520;6.764;2022-08-21T05:34:06;101439.25;;;16.78
69785;BMP280;14177;51.520;6.764;2022-08-21T05:36:33;101438.13;;;16.84
69785;BMP280;14177;51.520;6.764;2022-08-21T05:39:03;101441.31;;;16.90
69785;BMP280;14177;51.520;6.764;2022-08-21T05:41:33;101441.81;;;16.98
69785;BMP280;14177;51.520;6.764;2022-08-21T05:44:00;101438.13;;;17.02
69785;BMP280;14177;51.520;6.764;2022-08-21T05:46:27;101437.91;;;17.07
69785;BMP280;14177;51.520;6.764;2022-08-21T05:48:54;101439.25;;;17.15
69785;BMP280;14177;51.520;6.764;2022-08-21T05:51:21;101435.41;;;17.22
69785;BMP280;14177;51.520;6.764;2022-08-21T05:53:48;101436.69;;;17.32
69785;BMP280;14177;51.520;6.764;2022-08-21T05:56:15;101437.03;;;17.43
69785;BMP280;14177;51.520;6.764;2022-08-21T05:58:42;101438.13;;;17.56
69785;BMP280;14177;51.520;6.764;2022-08-21T06:01:10;101442.84;;;17.66
69785;BMP280;14177;51.520;6.764;2022-08-21T06:03:40;101439.69;;;17.77
69785;BMP280;14177;51.520;6.764;2022-08-21T06:06:07;101443.72;;;17.84
69785;BMP280;14177;51.520;6.764;2022-08-21T06:08:34;101444.19;;;17.92
69785;BMP280;14177;51.520;6.764;2022-08-21T06:11:03;101442.00;;;18.00
69785;BMP280;14177;51.520;6.764;2022-08-21T06:13:30;101445.25;;;18.05
69785;BMP280;14177;51.520;6.764;2022-08-21T06:16:06;101448.19;;;18.16
69785;BMP280;14177;51.520;6.764;2022-08-21T06:18:39;101454.06;;;18.21
69785;BMP280;14177;51.520;6.764;2022-08-21T06:21:07;101451.13;;;18.27
69785;BMP280;14177;51.520;6.764;2022-08-21T06:23:48;101447.25;;;18.33
69785;BMP280;14177;51.520;6.764;2022-08-21T06:26:15;101454.59;;;18.44
69785;BMP280;14177;51.520;6.764;2022-08-21T06:28:44;101445.34;;;18.52
69785;BMP280;14177;51.520;6.764;2022-08-21T06:31:15;101450.13;;;18.61
69785;BMP280;14177;51.520;6.764;2022-08-21T06:33:43;101451.50;;;18.68
69785;BMP280;14177;51.520;6.764;2022-08-21T06:36:10;101446.50;;;18.79
69785;BMP280;14177;51.520;6.764;2022-08-21T06:38:38;101439.88;;;18.88
69785;BMP280;14177;51.520;6.764;2022-08-21T06:41:07;101443.03;;;18.94
69785;BMP280;14177;51.520;6.764;2022-08-21T06:43:36;101438.19;;;19.02
69785;BMP280;14177;51.520;6.764;2022-08-21T06:46:07;101441.25;;;19.10
69785;BMP280;14177;51.520;6.764;2022-08-21T06:48:34;101446.97;;;19.18
69785;BMP280;14177;51.520;6.764;2022-08-21T06:51:01;101440.59;;;19.22
69785;BMP280;14177;51.520;6.764;2022-08-21T06:53:29;101447.34;;;19.28
69785;BMP280;14177;51.520;6.764;2022-08-21T06:55:56;101438.03;;;19.36
69785;BMP280;14177;51.520;6.764;2022-08-21T06:58:23;101442.63;;;19.48
69785;BMP280;14177;51.520;6.764;2022-08-21T07:00:54;101437.59;;;19.59
69785;BMP280;14177;51.520;6.764;2022-08-21T07:03:47;101437.78;;;19.70
69785;BMP280;14177;51.520;6.764;2022-08-21T07:06:15;101431.06;;;19.80
69785;BMP280;14177;51.520;6.764;2022-08-21T07:08:44;101435.53;;;19.93
69785;BMP280;14177;51.520;6.764;2022-08-21T07:11:18;101439.06;;;20.08
69785;BMP280;14177;51.520;6.764;2022-08-21T07:13:45;101440.78;;;20.23
69785;BMP280;14177;51.520;6.764;2022-08-21T07:16:12;101438.44;;;20.32
69785;BMP280;14177;51.520;6.764;2022-08-21T07:18:39;101445.22;;;20.36
69785;BMP280;14177;51.520;6.764;2022-08-21T07:21:07;101444.22;;;20.39
69785;BMP280;14177;51.520;6.764;2022-08-21T07:23:45;101442.03;;;20.45
69785;BMP280;14177;51.520;6.764;2022-08-21T07:26:16;101438.34;;;20.48
69785;BMP280;14177;51.520;6.764;2022-08-21T07:28:44;101435.81;;;20.46
69785;BMP280;14177;51.520;6.764;2022-08-21T07:31:15;101437.13;;;20.53
69785;BMP280;14177;51.520;6.764;2022-08-21T07:33:43;101439.41;;;20.59
69785;BMP280;14177;51.520;6.764;2022-08-21T07:36:13;101424.78;;;20.68
69785;BMP280;14177;51.520;6.764;2022-08-21T07:38:59;101428.84;;;20.73
69785;BMP280;14177;51.520;6.764;2022-08-21T07:41:28;101437.22;;;20.93
69785;BMP280;14177;51.520;6.764;2022-08-21T07:43:56;101439.66;;;21.10
69785;BMP280;14177;51.520;6.764;2022-08-21T07:46:26;101446.88;;;21.21
69785;BMP280;14177;51.520;6.764;2022-08-21T07:48:53;101445.19;;;21.20
69785;BMP280;14177;51.520;6.764;2022-08-21T07:51:25;101445.72;;;21.25
69785;BMP280;14177;51.520;6.764;2022-08-21T07:53:56;101450.44;;;21.34
69785;BMP280;14177;51.520;6.764;2022-08-21T07:56:24;101435.56;;;21.45
69785;BMP280;14177;51.520;6.764;2022-08-21T07:58:51;101431.00;;;21.61
69785;BMP280;14177;51.520;6.764;2022-08-21T08:01:19;101432.56;;;21.64
69785;BMP280;14177;51.520;6.764;2022-08-21T08:03:46;101429.44;;;21.71
69785;BMP280;14177;51.520;6.764;2022-08-21T08:06:14;101421.75;;;21.93
69785;BMP280;14177;51.520;6.764;2022-08-21T08:08:43;101426.31;;;22.04
69785;BMP280;14177;51.520;6.764;2022-08-21T08:11:11;101415.94;;;22.13
69785;BMP280;14177;51.520;6.764;2022-08-21T08:13:45;101414.78;;;22.29
69785;BMP280;14177;51.520;6.764;2022-08-21T08:16:13;101415.88;;;22.39
69785;BMP280;14177;51.520;6.764;2022-08-21T08:18:41;101406.25;;;22.51
69785;BMP280;14177;51.520;6.764;2022-08-21T08:21:10;101411.69;;;22.73
69785;BMP280;14177;51.520;6.764;2022-08-21T08:23:49;101418.03;;;22.83
69785;BMP280;14177;51.520;6.764;2022-08-21T08:26:39;101427.09;;;23.04
69785;BMP280;14177;51.520;6.764;2022-08-21T08:29:15;101419.81;;;23.31
69785;BMP280;14177;51.520;6.764;2022-08-21T08:31:48;101420.31;;;23.36
69785;BMP280;14177;51.520;6.764;2022-08-21T08:34:17;101430.13;;;23.23
69785;BMP280;14177;51.520;6.764;2022-08-21T08:36:51;101427.81;;;23.18
69785;BMP280;14177;51.520;6.764;2022-08-21T08:39:21;101409.81;;;23.11
69785;BMP280;14177;51.520;6.764;2022-08-21T08:42:44;101417.16;;;23.31
69785;BMP280;14177;51.520;6.764;2022-08-21T08:45:21;101412.47;;;23.57
69785;BMP280;14177;51.520;6.764;2022-08-21T08:48:03;101413.06;;;23.84
69785;BMP280;14177;51.520;6.764;2022-08-21T08:50:55;101405.63;;;24.11
69785;BMP280;14177;51.520;6.764;2022-08-21T08:53:35;101407.25;;;24.25
69785;BMP280;14177;51.520;6.764;2022-08-21T08:56:05;101403.63;;;24.26
69785;BMP280;14177;51.520;6.764;2022-08-21T08:58:39;101397.97;;;24.41
69785;BMP280;14177;51.520;6.764;2022-08-21T09:01:19;101393.28;;;24.67
69785;BMP280;14177;51.520;6.764;2022-08-21T09:03:48;101400.25;;;24.78
69785;BMP280;14177;51.520;6.764;2022-08-21T09:06:36;101389.66;;;24.67
69785;BMP280;14177;51.520;6.764;2022-08-21T09:09:29;101391.22;;;24.59
69785;BMP280;14177;51.520;6.764;2022-08-21T09:12:23;101380.63;;;24.59
69785;BMP280;14177;51.520;6.764;2022-08-21T09:18:27;101385.25;;;25.10
69785;BMP280;14177;51.520;6.764;2022-08-21T09:21:30;101377.03;;;25.45
69785;BMP280;14177;51.520;6.764;2022-08-21T09:24:21;101375.88;;;25.79
69785;BMP280;14177;51.520;6.764;2022-08-21T09:26:59;101381.56;;;26.05
69785;BMP280;14177;51.520;6.764;2022-08-21T09:29:33;101380.59;;;26.06
69785;BMP280;14177;51.520;6.764;2022-08-21T09:32:03;101370.66;;;26.38
69785;BMP280;14177;51.520;6.764;2022-08-21T09:34:32;101373.06;;;26.81
69785;BMP280;14177;51.520;6.764;2022-08-21T09:37:18;101364.69;;;27.04
69785;BMP280;14177;51.520;6.764;2022-08-21T09:39:44;101362.50;;;27.28
69785;BMP280;14177;51.520;6.764;2022-08-21T09:42:25;101370.94;;;27.33
69785;BMP280;14177;51.520;6.764;2022-08-21T09:45:16;101360.28;;;27.24
69785;BMP280;14177;51.520;6.764;2022-08-21T09:47:44;101357.16;;;27.37
69785;BMP280;14177;51.520;6.764;2022-08-21T09:50:19;101359.97;;;27.45
69785;BMP280;14177;51.520;6.764;2022-08-21T09:53:00;101350.56;;;27.70
69785;BMP280;14177;51.520;6.764;2022-08-21T09:55:34;101351.28;;;27.81
69785;BMP280;14177;51.520;6.764;2022-08-21T09:58:34;101358.56;;;27.70
69785;BMP280;14177;51.520;6.764;2022-08-21T10:01:05;101368.53;;;27.58
69785;BMP280;14177;51.520;6.764;2022-08-21T10:03:32;101351.13;;;27.64
69785;BMP280;14177;51.520;6.764;2022-08-21T10:06:07;101345.38;;;27.78
69785;BMP280;14177;51.520;6.764;2022-08-21T10:08:39;101354.06;;;27.89
69785;BMP280;14177;51.520;6.764;2022-08-21T10:11:13;101341.72;;;27.79
69785;BMP280;14177;51.520;6.764;2022-08-21T10:13:53;101335.00;;;28.11
69785;BMP280;14177;51.520;6.764;2022-08-21T10:25:02;101337.22;;;28.61
69785;BMP280;14177;51.520;6.764;2022-08-21T10:27:50;101336.78;;;28.66
69785;BMP280;14177;51.520;6.764;2022-08-21T10:30:36;101333.75;;;28.78
69785;BMP280;14177;51.520;6.764;2022-08-21T10:33:23;101331.19;;;28.86
69785;BMP280;14177;51.520;6.764;2022-08-21T10:36:19;101340.06;;;28.77
69785;BMP280;14177;51.520;6.764;2022-08-21T10:39:37;101328.31;;;28.97
69785;BMP280;14177;51.520;6.764;2022-08-21T10:43:20;101322.78;;;28.99
69785;BMP280;14177;51.520;6.764;2022-08-21T10:51:20;101334.81;;;29.30
69785;BMP280;14177;51.520;6.764;2022-08-21T10:58:00;101319.66;;;29.56
69785;BMP280;14177;51.520;6.764;2022-08-21T11:01:22;101316.94;;;29.48
69785;BMP280;14177;51.520;6.764;2022-08-21T11:04:19;101322.06;;;29.67
69785;BMP280;14177;51.520;6.764;2022-08-21T11:07:02;101316.59;;;29.68
69785;BMP280;14177;51.520;6.764;2022-08-21T11:09:47;101322.63;;;29.70
69785;BMP280;14177;51.520;6.764;2022-08-21T11:12:41;101314.09;;;29.49
69785;BMP280;14177;51.520;6.764;2022-08-21T11:15:41;101319.88;;;29.62
69785;BMP280;14177;51.520;6.764;2022-08-21T11:24:24;101333.72;;;29.23
69785;BMP280;14177;51.520;6.764;2022-08-21T11:27:17;101316.59;;;29.51
69785;BMP280;14177;51.520;6.764;2022-08-21T11:29:58;101314.59;;;29.70
69785;BMP280;14177;51.520;6.764;2022-08-21T11:38:38;101326.84;;;29.20
69785;BMP280;14177;51.520;6.764;2022-08-21T11:44:23;101318.97;;;29.36
69785;BMP280;14177;51.520;6.764;2022-08-21T11:47:21;101311.53;;;29.90
69785;BMP280;14177;51.520;6.764;2022-08-21T11:50:13;101315.41;;;29.96
69785;BMP280;14177;51.520;6.764;2022-08-21T11:58:29;101313.75;;;30.28
69785;BMP280;14177;51.520;6.764;2022-08-21T12:01:07;101319.72;;;30.48
69785;BMP280;14177;51.520;6.764;2022-08-21T12:03:42;101308.41;;;30.70
69785;BMP280;14177;51.520;6.764;2022-08-21T12:06:33;101304.09;;;30.77
69785;BMP280;14177;51.520;6.764;2022-08-21T12:09:08;101303.38;;;30.67
69785;BMP280;14177;51.520;6.764;2022-08-21T12:12:13;101316.38;;;30.46
69785;BMP280;14177;51.520;6.764;2022-08-21T12:15:06;101302.91;;;30.71
69785;BMP280;14177;51.520;6.764;2022-08-21T12:17:59;101302.44;;;30.92
69785;BMP280;14177;51.520;6.764;2022-08-21T12:23:18;101309.50;;;31.01
69785;BMP280;14177;51.520;6.764;2022-08-21T12:26:18;101289.59;;;31.35
69785;BMP280;14177;51.520;6.764;2022-08-21T12:28:47;101290.44;;;31.67
69785;BMP280;14177;51.520;6.764;2022-08-21T12:31:24;101296.16;;;31.64
69785;BMP280;14177;51.520;6.764;2022-08-21T12:34:01;101311.56;;;31.38
69785;BMP280;14177;51.520;6.764;2022-08-21T12:36:44;101292.44;;;31.49
69785;BMP280;14177;51.520;6.764;2022-08-21T12:39:19;101297.16;;;31.31
69785;BMP280;14177;51.520;6.764;2022-08-21T12:42:16;101295.72;;;30.88
69785;BMP280;14177;51.520;6.764;2022-08-21T12:44:50;101297.03;;;30.76
69785;BMP280;14177;51.520;6.764;2022-08-21T12:47:56;101291.22;;;31.04
69785;BMP280;14177;51.520;6.764;2022-08-21T12:50:41;101290.75;;;31.48
69785;BMP280;14177;51.520;6.764;2022-08-21T12:53:50;101282.06;;;31.30
69785;BMP280;14177;51.520;6.764;2022-08-21T12:56:22;101286.34;;;30.92
69785;BMP280;14177;51.520;6.764;2022-08-21T12:59:11;101278.16;;;30.93
69785;BMP280;14177;51.520;6.764;2022-08-21T13:01:48;101286.41;;;31.08
69785;BMP280;14177;51.520;6.764;2022-08-21T13:04:19;101289.09;;;31.16
69785;BMP280;14177;51.520;6.764;2022-08-21T13:06:52;101282.31;;;30.80
69785;BMP280;14177;51.520;6.764;2022-08-21T13:09:28;101287.63;;;30.64
69785;BMP280;14177;51.520;6.764;2022-08-21T13:11:56;101288.94;;;30.52
69785;BMP280;14177;51.520;6.764;2022-08-21T13:14:40;101289.22;;;30.41
69785;BMP280;14177;51.520;6.764;2022-08-21T13:17:32;101286.72;;;30.47
69785;BMP280;14177;51.520;6.764;2022-08-21T13:23:35;101279.44;;;30.65
69785;BMP280;14177;51.520;6.764;2022-08-21T13:26:18;101283.28;;;30.71
69785;BMP280;14177;51.520;6.764;2022-08-21T13:28:46;101286.03;;;30.95
69785;BMP280;14177;51.520;6.764;2022-08-21T13:31:29;101273.81;;;31.16
69785;BMP280;14177;51.520;6.764;2022-08-21T13:33:57;101266.13;;;31.21
69785;BMP280;14177;51.520;6.764;2022-08-21T13:36:32;101268.47;;;31.16
69785;BMP280;14177;51.520;6.764;2022-08-21T13:39:04;101260.59;;;31.22
69785;BMP280;14177;51.520;6.764;2022-08-21T13:41:38;101263.91;;;31.48
69785;BMP280;14177;51.520;6.764;2022-08-21T13:44:20;101254.03;;;31.33
69785;BMP280;14177;51.520;6.764;2022-08-21T13:46:50;101255.72;;;31.34
69785;BMP280;14177;51.520;6.764;2022-08-21T13:49:25;101258.22;;;31.43
69785;BMP280;14177;51.520;6.764;2022-08-21T13:51:53;101255.53;;;31.43
69785;BMP280;14177;51.520;6.764;2022-08-21T13:54:24;101254.56;;;31.20
69785;BMP280;14177;51.520;6.764;2022-08-21T13:56:53;101268.22;;;30.78
69785;BMP280;14177;51.520;6.764;2022-08-21T13:59:34;101267.38;;;30.28
69785;BMP280;14177;51.520;6.764;2022-08-21T14:02:15;101275.06;;;30.23
69785;BMP280;14177;51.520;6.764;2022-08-21T14:07:36;101272.38;;;29.64
69785;BMP280;14177;51.520;6.764;2022-08-21T14:10:11;101280.59;;;29.45
69785;BMP280;14177;51.520;6.764;2022-08-21T14:12:47;101278.63;;;29.12
69785;BMP280;14177;51.520;6.764;2022-08-21T14:15:18;101282.97;;;28.96
69785;BMP280;14177;51.520;6.764;2022-08-21T14:17:45;101277.72;;;28.86
69785;BMP280;14177;51.520;6.764;2022-08-21T14:20:31;101274.75;;;28.62
69785;BMP280;14177;51.520;6.764;2022-08-21T14:22:59;101272.84;;;28.55
69785;BMP280;14177;51.520;6.764;2022-08-21T14:25:47;101270.84;;;28.57
69785;BMP280;14177;51.520;6.764;2022-08-21T14:28:30;101267.91;;;28.77
69785;BMP280;14177;51.520;6.764;2022-08-21T14:31:18;101261.59;;;29.13
69785;BMP280;14177;51.520;6.764;2022-08-21T14:33:46;101271.97;;;29.16
69785;BMP280;14177;51.520;6.764;2022-08-21T14:36:15;101266.13;;;29.38
69785;BMP280;14177;51.520;6.764;2022-08-21T14:38:42;101263.97;;;29.59
69785;BMP280;14177;51.520;6.764;2022-08-21T14:41:19;101266.28;;;30.05
69785;BMP280;14177;51.520;6.764;2022-08-21T14:43:53;101265.81;;;30.51
69785;BMP280;14177;51.520;6.764;2022-08-21T14:46:33;101261.53;;;30.90
69785;BMP280;14177;51.520;6.764;2022-08-21T14:49:11;101262.56;;;31.05
69785;BMP280;14177;51.520;6.764;2022-08-21T14:51:40;101260.84;;;30.80
69785;BMP280;14177;51.520;6.764;2022-08-21T14:54:20;101255.72;;;30.45
69785;BMP280;14177;51.520;6.764;2022-08-21T14:57:00;101260.16;;;30.20
69785;BMP280;14177;51.520;6.764;2022-08-21T14:59:29;101253.63;;;30.23
69785;BMP280;14177;51.520;6.764;2022-08-21T15:01:56;101254.31;;;30.25
69785;BMP280;14177;51.520;6.764;2022-08-21T15:04:23;101252.53;;;30.49
69785;BMP280;14177;51.520;6.764;2022-08-21T15:06:50;101241.03;;;30.65
69785;BMP280;14177;51.520;6.764;2022-08-21T15:09:17;101252.78;;;30.72
69785;BMP280;14177;51.520;6.764;2022-08-21T15:11:44;101247.41;;;30.56
69785;BMP280;14177;51.520;6.764;2022-08-21T15:14:22;101251.78;;;30.23
69785;BMP280;14177;51.520;6.764;2022-08-21T15:16:51;101252.81;;;29.97
69785;BMP280;14177;51.520;6.764;2022-08-21T15:19:19;101252.38;;;29.76
69785;BMP280;14177;51.520;6.764;2022-08-21T15:21:46;101243.97;;;29.71
69785;BMP280;14177;51.520;6.764;2022-08-21T15:24:13;101246.28;;;29.66
69785;BMP280;14177;51.520;6.764;2022-08-21T15:26:40;101240.63;;;29.69
69785;BMP280;14177;51.520;6.764;2022-08-21T15:29:08;101251.00;;;29.72